Saint Peter, IL (62880)

1:45 AM CST on February 09, 2016 (GMT -0600)
Alma Park | | Change Station
CLOSE
Current Station
Personal Weather Station
Location: Alma, IL
Elevation: 640 ft
Nearby Weather Stations

Elev 640 ft 38.72 °N, 88.91 °W | Updated 10 minutes ago

Snow
Snow
18.9 °F
Feels Like 10 °F
N
6.3
Wind Variable Wind from West

Today
High -- | Low -- °F
--% Chance of Precip.
Yesterday
High -- | Low -- °F
Precip. -- in
Pressure 29.87 in
Visibility 7.0 miles
Clouds Scattered Clouds 2200 ft
Overcast 3200 ft
Windchill 10 °F
Dew Point 15 °F
Humidity 85%
Rainfall 0.00 in
Snow Depth Not available.
6:54 AM 5:25 PM
New Moon, 1% visible
METAR KSLO 090735Z AUTO 30012KT 7SM -SN SCT022 OVC032 M06/M10 A2987 RMK AO2 T10571103
Pressure 29.87 in
Visibility 7.0 miles
Clouds Scattered Clouds 2200 ft
Overcast 3200 ft
Windchill 10 °F
Dew Point 15 °F
Humidity 85%
Rainfall 0.00 in
Snow Depth Not available.
6:54 AM 5:25 PM
New Moon, 1% visible
METAR KSLO 090735Z AUTO 30012KT 7SM -SN SCT022 OVC032 M06/M10 A2987 RMK AO2 T10571103

10-Day Weather Forecast

Almanac

Astronomy

Feb. 09, 2016 Rise Set
Actual Time
Civil Twilight
Nautical Twilight
Astronomical Twilight
Moon
Length of Visible Light
Length of Day
Tomorrow will be .
, % of the Moon is Illuminated

Today's Extremes

State Highs State Lows

Community

WunderPhotos

Upload Photos

1,891,571 photos uploaded!

WunderBlog® & News

Nearby

Air Quality

  Air Quality AQ Index Pollutant
Not available.

Snow Depth

Station Depth Elevation

Earthquake Activity

City Distance Mag. Time & Date
Minimum magnitude displayed is 2.5.

Coastal Water Temperatures

Place Temperature

Stations

Nearby Weather Stations

Station Location Temp. Windchill Dew Point Humidity Wind Precip. Elev Updated Type
                   

Watches & Warnings

There are currently no watches in effect.